This demonstration page uses our WeatherBlox Daily Observations layout. Learn more.

Left ArrowRight Arrow

Hourly Observations for July 19, 2018

Temp ( °F °C ) Dew Point ( °F °C ) Humidity (%) Winds ( mph kmh ) Pressure ( in mb ) Visibility ( mi km ) Precip ( " mm )
12:51 am 00:51 Clear 85 29.4 63 17.2 48 48 NNW 13 20 29.81 1009 10 16.0934 N/A
1:51 am 01:51 Clear 84 28.9 62 16.7 48 48 NW 12 19 29.8 1009 10 16.0934 N/A
2:51 am 02:51 Clear 84 28.9 60 15.6 44 44 NW 12 19 29.8 1009 10 16.0934 N/A
3:51 am 03:51 Clear 81 27.2 60 15.6 49 49 WNW 10 17 29.82 1010 10 16.0934 N/A
4:51 am 04:51 Clear 80 26.7 62 16.7 54 54 WNW 8 13 29.83 1010 10 16.0934 N/A
5:51 am 05:51 Sunny 80 26.7 63 17.2 56 56 WNW 9 15 29.85 1011 10 16.0934 N/A
6:51 am 06:51 Sunny 83 28.3 61 16.1 48 48 NW 15 24 29.87 1012 10 16.0934 N/A
7:51 am 07:51 Sunny 86 30 63 17.2 46 46 WNW 14 22 29.88 1012 10 16.0934 N/A
8:51 am 08:51 Sunny 89 31.7 62 16.7 41 41 NW 13 20 29.87 1012 10 16.0934 N/A
9:51 am 09:51 Sunny 92 33.3 62 16.7 37 37 W 17 28 29.86 1011 10 16.0934 N/A
10:51 am 10:51 Sunny 95 35 61 16.1 32 32 WNW 16 26 29.85 1011 10 16.0934 N/A
11:51 am 11:51 Sunny 98 36.7 60 15.6 28 28 W 17 28 29.81 1010 10 16.0934 N/A
12:51 pm 12:51 Sunny 101 38.3 56 13.3 22 22 W 14 22 29.78 1008 10 16.0934 N/A
1:51 pm 13:51 Sunny 103 39.4 51 10.6 18 18 W 16 26 29.74 1007 10 16.0934 N/A
2:51 pm 14:51 Sunny 103 39.4 54 12.2 20 20 W 10 17 29.7 1006 10 16.0934 N/A
3:42 pm 15:42 Sunny with Nearby Thunderstorms 104 40 54 12 19 19 WNW 15 24 29.59 1002 10 16.0934 N/A
3:51 pm 15:51 Mostly Sunny 104 40 57 13.9 21 21 W 21 33 29.7 1006 10 16.0934 N/A
4:26 pm 16:26 Sunny 100 38 55 13 22 22 NNE 24 39 29.56 1001 10 16.0934 N/A
4:33 pm 16:33 Sunny 99 37 55 13 24 24 N 12 19 29.59 1002 10 16.0934 N/A
4:51 pm 16:51 Sunny 98 36.7 57 13.9 25 25 NW 9 15 29.7 1006 10 16.0934 N/A
5:51 pm 17:51 Sunny 88 31.1 57 13.9 35 35 S 10 17 29.73 1007 10 16.0934 N/A
6:51 pm 18:51 Sunny 88 31.1 59 15 38 38 VRB 5 7 29.75 1007 10 16.0934 N/A
7:51 pm 19:51 Clear 81 27.2 60 15.6 49 49 NW 10 17 29.77 1008 10 16.0934 N/A
8:51 pm 20:51 Clear 82 27.8 60 15.6 47 47 N 6 9 29.78 1009 10 16.0934 N/A
9:51 pm 21:51 Clear 80 26.7 62 16.7 54 54 WNW 12 19 29.8 1009 10 16.0934 N/A
10:51 pm 22:51 Hazy 79 26.1 62 16.7 56 56 NNW 5 7 29.8 1009 4 6.43736 N/A

Powered by AerisWeather